KSDM/SDM METAR and TAF weather

Enter ICAO airport designator
Station Type Date Time Source
KSDM METAR 2021/09/24 05:53 UTC NOAA

KSDM 240553Z AUTO 21003KT 8SM CLR 17/14 A2993 RMK AO2 SLP132 T01670144 10239 20167 51013


Station Type Date Time Source
KSDM Decoded METAR 2021/09/24 05:53 UTC NOAA

San Diego, Brown Field Municipal Airport, CA, United States (KSDM) 32-34-31N 116-59-35W 159M
Sep 24, 2021 - 01:53 AM EDT / 2021.09.24 0553 UTC
Wind: from the SSW (210 degrees) at 3 MPH (3 KT):0
Visibility: 8 mile(s):0
Sky conditions: clear
Temperature: 62.1 F (16.7 C)
Dew Point: 57.9 F (14.4 C)
Relative Humidity: 86%
Pressure (altimeter): 29.93 in. Hg (1013 hPa)
Pressure tendency: 0.04 inches (1.3 hPa) higher than three hours ago
ob: KSDM 240553Z AUTO 21003KT 8SM CLR 17/14 A2993 RMK AO2 SLP132 T01670144 10239 20167 51013
cycle: 6

Station Type Date Time Source
KSDM TAF UTC NOAA

Error!

Example: see airport list